Time;durP1;ratioP1;P1;durP2;ratioP2;P2;SDS_P1;SDS_P2;PMS_P1;PMS_P2;Temp;Humidity;BMP_temperature;BMP_pressure;BME280_temperature;BME280_humidity;BME280_pressure;Samples;Min_cycle;Max_cycle;Signal;HPM_P1;HPM_P2
2023/08/09 00:00:52;;;;;;;4.18;2.15;;;;;;;13.32;73.65;95872.44;2064997;28;20055;-61
2023/08/09 00:01:53;;;;;;;5.20;1.92;;;;;;;13.32;73.55;95877.66;2063843;28;20053;-61
2023/08/09 00:02:55;;;;;;;3.20;2.05;;;;;;;13.33;73.42;95875.88;2064063;28;20057;-61
2023/08/09 00:03:56;;;;;;;4.97;2.15;;;;;;;13.29;73.47;95874.41;2065418;28;20050;-61
2023/08/09 00:04:57;;;;;;;4.50;2.17;;;;;;;13.27;73.76;95881.47;2064737;28;20057;-61
2023/08/09 00:05:58;;;;;;;3.58;2.15;;;;;;;13.23;74.10;95870.31;2065506;28;20057;-61
2023/08/09 00:07:00;;;;;;;4.55;2.20;;;;;;;13.25;74.04;95876.28;2065081;28;20051;-61
2023/08/09 00:08:03;;;;;;;5.45;2.28;;;;;;;13.23;74.68;95875.53;2064540;28;20049;-61
2023/08/09 00:09:04;;;;;;;4.78;2.50;;;;;;;13.26;73.86;95883.25;2066269;28;20049;-61
2023/08/09 00:10:06;;;;;;;6.68;2.30;;;;;;;13.22;73.94;95876.47;2065951;28;20049;-61
2023/08/09 00:11:07;;;;;;;4.10;2.50;;;;;;;13.14;74.55;95874.31;2066293;28;20054;-61
2023/08/09 00:12:09;;;;;;;3.58;2.03;;;;;;;13.19;74.58;95879.28;2066554;28;20046;-61
2023/08/09 00:13:10;;;;;;;6.03;2.40;;;;;;;13.16;74.45;95875.09;2066183;28;20058;-61
2023/08/09 00:14:12;;;;;;;4.55;2.42;;;;;;;13.08;74.93;95866.03;2066565;28;20050;-61
2023/08/09 00:15:13;;;;;;;5.07;2.30;;;;;;;13.07;75.27;95875.63;2066859;28;20057;-61
2023/08/09 00:16:15;;;;;;;3.55;2.20;;;;;;;13.05;75.34;95872.28;2066797;28;20065;-61
2023/08/09 00:17:16;;;;;;;4.13;2.22;;;;;;;13.05;75.03;95863.63;2066718;28;20065;-61
2023/08/09 00:18:17;;;;;;;4.50;2.10;;;;;;;13.03;75.09;95863.69;2066803;28;20042;-61
2023/08/09 00:19:19;;;;;;;4.57;2.40;;;;;;;13.05;74.97;95866.22;2065817;28;20065;-61
2023/08/09 00:20:20;;;;;;;4.95;2.08;;;;;;;13.01;75.30;95861.16;2066635;28;20054;-61
2023/08/09 00:21:22;;;;;;;4.63;1.92;;;;;;;13.03;75.46;95863.69;2066877;28;20050;-61
2023/08/09 00:22:23;;;;;;;4.53;2.28;;;;;;;13.05;74.94;95861.03;2066054;28;20051;-61
2023/08/09 00:23:24;;;;;;;4.32;2.17;;;;;;;13.08;75.22;95860.84;2066510;28;20065;-61
2023/08/09 00:24:25;;;;;;;3.65;2.20;;;;;;;13.06;74.83;95866.13;2065929;28;20054;-61
2023/08/09 00:25:27;;;;;;;4.38;2.10;;;;;;;13.06;75.13;95863.53;2066403;28;20054;-61
2023/08/09 00:26:28;;;;;;;2.58;1.83;;;;;;;13.05;74.79;95871.44;2066641;28;20051;-61
2023/08/09 00:27:30;;;;;;;2.63;1.88;;;;;;;13.04;74.67;95865.38;2066607;28;20058;-61
2023/08/09 00:28:31;;;;;;;6.93;2.28;;;;;;;13.07;74.70;95867.81;2057935;28;20066;-61
2023/08/09 00:29:32;;;;;;;3.15;1.83;;;;;;;13.09;74.69;95862.50;2058040;28;20050;-61
2023/08/09 00:30:34;;;;;;;3.90;2.20;;;;;;;13.13;75.03;95869.22;2065446;28;20053;-61
2023/08/09 00:31:35;;;;;;;5.15;2.20;;;;;;;13.10;74.95;95864.19;2066011;28;20058;-61
2023/08/09 00:32:37;;;;;;;4.40;2.03;;;;;;;13.07;74.76;95860.00;2066802;28;20486;-61
2023/08/09 00:33:38;;;;;;;3.00;1.92;;;;;;;13.06;74.64;95865.28;2066111;28;20054;-61
2023/08/09 00:34:40;;;;;;;6.45;2.45;;;;;;;13.07;74.78;95870.44;2066807;28;20498;-61
2023/08/09 00:35:41;;;;;;;3.53;2.15;;;;;;;13.09;74.76;95872.94;2057662;28;20541;-61
2023/08/09 00:36:42;;;;;;;3.83;2.00;;;;;;;13.11;74.59;95866.69;2049287;29;20055;-61
2023/08/09 00:37:44;;;;;;;4.57;2.22;;;;;;;13.08;74.47;95872.09;2057699;28;20484;-61
2023/08/09 00:38:45;;;;;;;5.60;2.20;;;;;;;13.06;75.01;95860.06;2066613;28;20053;-61
2023/08/09 00:39:46;;;;;;;3.60;2.17;;;;;;;13.07;75.12;95874.78;2057512;28;20051;-61
2023/08/09 00:40:47;;;;;;;3.83;2.28;;;;;;;13.07;74.88;95869.56;2058039;28;20054;-61
2023/08/09 00:41:48;;;;;;;2.78;2.00;;;;;;;13.06;74.82;95867.91;2056661;28;20059;-61
2023/08/09 00:42:50;;;;;;;4.93;2.25;;;;;;;13.09;75.14;95876.38;2057280;28;20063;-61
2023/08/09 00:43:51;;;;;;;3.63;1.95;;;;;;;13.06;75.36;95873.94;2057759;28;20066;-61
2023/08/09 00:44:52;;;;;;;4.22;2.10;;;;;;;13.07;74.96;95875.63;2057621;28;20058;-61
2023/08/09 00:45:53;;;;;;;3.70;2.10;;;;;;;13.00;75.43;95869.94;2066630;28;20398;-61
2023/08/09 00:46:55;;;;;;;6.00;2.40;;;;;;;12.95;75.65;95871.97;2065209;28;20046;-61
2023/08/09 00:47:56;;;;;;;7.00;2.13;;;;;;;12.89;76.30;95861.06;2057505;28;20069;-61
2023/08/09 00:48:58;;;;;;;4.45;2.13;;;;;;;12.89;75.71;95867.13;2057672;28;20058;-61
2023/08/09 00:50:00;;;;;;;5.43;2.00;;;;;;;12.90;75.83;95860.13;2057611;28;20499;-61
2023/08/09 00:51:02;;;;;;;5.55;1.83;;;;;;;12.94;75.64;95875.50;2057892;28;20053;-61
2023/08/09 00:52:04;;;;;;;4.35;2.10;;;;;;;12.90;75.86;95870.56;2065150;28;20055;-61
2023/08/09 00:53:06;;;;;;;5.30;2.22;;;;;;;12.91;75.58;95877.44;2057332;28;20053;-61
2023/08/09 00:54:07;;;;;;;4.10;2.28;;;;;;;12.84;75.76;95866.56;2057471;28;20058;-61
2023/08/09 00:55:09;;;;;;;3.97;2.00;;;;;;;12.85;76.26;95870.00;2058011;28;20066;-61
2023/08/09 00:56:10;;;;;;;3.35;2.08;;;;;;;12.85;76.17;95870.00;2049619;29;20051;-61
2023/08/09 00:57:11;;;;;;;2.75;2.10;;;;;;;12.87;76.21;95882.00;2049967;28;20055;-61
2023/08/09 00:58:13;;;;;;;4.80;2.20;;;;;;;12.86;75.92;95882.13;2066571;28;20042;-61
2023/08/09 00:59:14;;;;;;;4.32;2.50;;;;;;;12.75;77.15;95867.06;2066343;28;20057;-61
2023/08/09 01:00:15;;;;;;;6.18;2.63;;;;;;;12.70;77.58;95867.34;2065771;28;20073;-61
2023/08/09 01:01:16;;;;;;;4.00;2.30;;;;;;;12.68;77.89;95869.19;2057729;28;20047;-61
2023/08/09 01:02:17;;;;;;;4.60;2.42;;;;;;;12.64;78.26;95869.47;2057144;28;20054;-61
2023/08/09 01:03:19;;;;;;;5.32;2.47;;;;;;;12.63;78.05;95860.81;2065614;28;20046;-61
2023/08/09 01:04:20;;;;;;;3.70;2.20;;;;;;;12.61;78.50;95867.88;2056901;28;20077;-61
2023/08/09 01:05:23;;;;;;;8.40;2.60;;;;;;;12.58;78.46;95873.25;2057036;28;20055;-61
2023/08/09 01:06:38;;;;;;;4.57;2.05;;;;;;;12.60;79.20;95873.19;2057906;28;20054;-61
2023/08/09 01:07:44;;;;;;;3.42;2.00;;;;;;;12.52;79.22;95868.41;2057441;28;20058;-61
2023/08/09 01:09:10;;;;;;;3.10;2.20;;;;;;;12.54;78.98;95880.41;2042606;29;20055;-61
2023/08/09 01:10:17;;;;;;;4.60;2.25;;;;;;;12.54;78.79;95877.81;2045070;29;20055;-61
2023/08/09 01:11:35;;;;;;;4.00;2.22;;;;;;;12.49;79.64;95873.78;2050202;28;20055;-61
2023/08/09 01:12:39;;;;;;;3.42;2.15;;;;;;;12.53;79.24;95877.88;2043472;29;20127;-61
2023/08/09 01:13:41;;;;;;;4.80;2.40;;;;;;;12.52;79.53;95874.44;2042996;28;20056;-61
2023/08/09 01:14:43;;;;;;;3.58;1.90;;;;;;;12.51;79.84;95871.91;2041909;29;20059;-61
2023/08/09 01:15:44;;;;;;;3.70;1.98;;;;;;;12.50;79.67;95873.69;2041551;29;20083;-61
2023/08/09 01:16:46;;;;;;;5.63;2.58;;;;;;;12.49;79.75;95879.00;2049991;28;20047;-61
2023/08/09 01:17:48;;;;;;;5.28;2.40;;;;;;;12.49;80.29;95879.00;2050185;28;20062;-61
2023/08/09 01:18:50;;;;;;;4.45;2.47;;;;;;;12.43;80.02;95876.72;2057790;28;20062;-61
2023/08/09 01:19:53;;;;;;;4.53;2.10;;;;;;;12.42;81.16;95875.88;2057371;28;20058;-61
2023/08/09 01:20:54;;;;;;;4.82;2.45;;;;;;;12.39;81.28;95873.47;2064883;28;20050;-61
2023/08/09 01:21:58;;;;;;;4.18;2.15;;;;;;;12.35;80.81;95864.16;2057666;28;20073;-61
2023/08/09 01:23:03;;;;;;;5.00;2.40;;;;;;;12.38;81.46;95874.41;2049611;29;20051;-61
2023/08/09 01:24:06;;;;;;;3.92;2.25;;;;;;;12.34;81.15;95873.72;2050696;28;20047;-61
2023/08/09 01:25:08;;;;;;;4.90;2.50;;;;;;;12.33;81.93;95877.25;2065609;28;20047;-61
2023/08/09 01:26:12;;;;;;;5.70;2.30;;;;;;;12.33;81.84;95876.41;2057665;28;20067;-61
2023/08/09 01:27:13;;;;;;;4.95;2.85;;;;;;;12.32;82.50;95867.78;2050022;28;20047;-62
2023/08/09 01:28:15;;;;;;;4.85;3.00;;;;;;;12.27;83.23;95853.31;2057150;28;20055;-61
2023/08/09 01:29:18;;;;;;;4.70;2.65;;;;;;;12.28;83.56;95850.63;2065637;28;20050;-61
2023/08/09 01:30:19;;;;;;;3.55;2.33;;;;;;;12.32;83.86;95854.75;2057649;28;20051;-61
2023/08/09 01:31:20;;;;;;;3.80;2.47;;;;;;;12.33;83.48;95851.22;2057495;28;20085;-61
2023/08/09 01:32:24;;;;;;;3.40;2.28;;;;;;;12.33;83.69;95855.59;2065363;28;20061;-61
2023/08/09 01:33:26;;;;;;;3.63;2.38;;;;;;;12.33;83.89;95851.22;2065906;28;20054;-62
2023/08/09 01:34:27;;;;;;;5.25;2.50;;;;;;;12.33;84.06;95853.81;2065308;28;20054;-61
2023/08/09 01:35:34;;;;;;;5.95;2.67;;;;;;;12.32;84.77;95849.53;2041091;29;20416;-61
2023/08/09 01:36:37;;;;;;;4.68;2.50;;;;;;;12.31;84.38;95850.44;2043143;28;20064;-61
2023/08/09 01:37:54;;;;;;;2.92;2.20;;;;;;;12.28;84.57;95845.41;2057723;28;20388;-61
2023/08/09 01:39:00;;;;;;;5.85;2.80;;;;;;;12.29;85.07;95854.91;2065812;28;20490;-61
2023/08/09 01:40:08;;;;;;;3.67;2.28;;;;;;;12.29;85.05;95851.47;2057094;28;20057;-62
2023/08/09 01:41:10;;;;;;;3.70;2.25;;;;;;;12.30;84.79;95845.34;2042381;29;20071;-62
2023/08/09 01:42:11;;;;;;;9.52;3.22;;;;;;;12.28;85.26;95831.56;2050221;28;20062;-61
2023/08/09 01:43:13;;;;;;;6.18;2.35;;;;;;;12.26;85.21;95836.84;2066154;28;20046;-61
2023/08/09 01:44:15;;;;;;;3.63;2.45;;;;;;;12.21;84.86;95838.03;2064935;28;20462;-61
2023/08/09 01:45:16;;;;;;;5.25;2.60;;;;;;;12.25;85.16;95845.59;2057027;28;20535;-61
2023/08/09 01:46:18;;;;;;;5.70;2.83;;;;;;;12.25;84.46;95844.75;2049137;28;20515;-61
2023/08/09 01:47:19;;;;;;;5.80;2.65;;;;;;;12.26;84.28;95854.25;2041446;29;20052;-61
2023/08/09 01:48:21;;;;;;;4.63;2.85;;;;;;;12.27;84.82;95845.50;2041966;28;20051;-61
2023/08/09 01:49:23;;;;;;;6.00;2.38;;;;;;;12.26;84.77;95846.44;2042066;29;20062;-61
2023/08/09 01:50:26;;;;;;;4.97;2.72;;;;;;;12.24;84.54;95843.94;2041659;28;20063;-61
2023/08/09 01:51:27;;;;;;;5.97;2.83;;;;;;;12.25;85.13;95845.59;2056826;28;20415;-61
2023/08/09 01:52:29;;;;;;;3.33;2.28;;;;;;;12.24;84.60;95848.28;2065484;28;20054;-61
2023/08/09 01:53:30;;;;;;;3.90;2.42;;;;;;;12.27;84.79;95837.69;2066194;28;20061;-61
2023/08/09 01:54:32;;;;;;;5.80;2.90;;;;;;;12.26;84.17;95844.66;2065635;28;20066;-61
2023/08/09 01:55:33;;;;;;;4.82;2.30;;;;;;;12.27;83.89;95837.69;2065208;28;20406;-61
2023/08/09 01:56:34;;;;;;;4.38;2.70;;;;;;;12.29;84.19;95841.06;2065930;28;20050;-61
2023/08/09 01:57:36;;;;;;;5.65;2.55;;;;;;;12.28;84.43;95841.97;2056677;28;20059;-62
2023/08/09 01:58:38;;;;;;;4.55;2.53;;;;;;;12.29;84.42;95833.25;2057776;28;20410;-61
2023/08/09 01:59:39;;;;;;;4.18;2.42;;;;;;;12.29;84.46;95838.44;2057350;28;20058;-61
2023/08/09 02:00:40;;;;;;;3.85;2.35;;;;;;;12.30;84.34;95838.38;2057497;28;20058;-61
2023/08/09 02:01:42;;;;;;;3.83;2.50;;;;;;;12.32;84.48;95833.06;2049416;28;20059;-61
2023/08/09 02:02:43;;;;;;;5.00;2.58;;;;;;;12.35;84.67;95836.34;2057085;28;20047;-61
2023/08/09 02:03:44;;;;;;;3.72;2.47;;;;;;;12.34;83.93;95839.03;2065828;28;20050;-61
2023/08/09 02:04:45;;;;;;;5.93;2.75;;;;;;;12.35;84.27;95838.94;2065734;28;20050;-61
2023/08/09 02:05:47;;;;;;;4.07;2.50;;;;;;;12.34;83.64;95845.06;2065060;28;20057;-61
2023/08/09 02:06:48;;;;;;;4.32;2.60;;;;;;;12.35;83.87;95851.13;2065985;28;20511;-61
2023/08/09 02:07:51;;;;;;;5.43;2.40;;;;;;;12.36;83.95;95840.63;2057612;28;20474;-61
2023/08/09 02:09:04;;;;;;;4.43;2.47;;;;;;;12.35;83.81;95836.34;2056826;28;20051;-61
2023/08/09 02:10:08;;;;;;;5.05;2.42;;;;;;;12.36;83.66;95845.00;2059294;28;20051;-61
2023/08/09 02:11:09;;;;;;;3.75;2.20;;;;;;;12.34;83.29;95841.63;2065499;28;20410;-61
2023/08/09 02:12:10;;;;;;;4.45;2.67;;;;;;;12.35;84.38;95843.31;2066071;28;20054;-61
2023/08/09 02:13:13;;;;;;;3.95;2.53;;;;;;;12.34;83.71;95839.84;2065978;28;20054;-61
2023/08/09 02:14:14;;;;;;;6.43;2.80;;;;;;;12.34;83.57;95839.84;2057128;28;20058;-61
2023/08/09 02:15:15;;;;;;;4.03;2.35;;;;;;;12.34;83.21;95842.47;2056743;28;20069;-61
2023/08/09 02:16:18;;;;;;;4.85;2.75;;;;;;;12.35;83.04;95838.94;2065374;28;20388;-61
2023/08/09 02:17:19;;;;;;;9.85;2.70;;;;;;;12.28;83.39;95824.59;2065306;28;20058;-61
2023/08/09 02:18:20;;;;;;;6.68;2.70;;;;;;;12.32;83.95;95838.25;2065942;28;20046;-61
2023/08/09 02:19:22;;;;;;;5.05;2.50;;;;;;;12.29;84.06;95828.88;2065072;28;20069;-61
2023/08/09 02:20:23;;;;;;;7.25;2.53;;;;;;;12.33;83.75;95839.97;2065546;28;20061;-61
2023/08/09 02:21:25;;;;;;;5.90;2.63;;;;;;;12.35;83.70;95843.31;2065826;28;20058;-61
2023/08/09 02:22:33;;;;;;;5.57;2.70;;;;;;;12.35;83.84;95832.91;2065499;28;20065;-61
2023/08/09 02:23:35;;;;;;;3.40;2.28;;;;;;;12.34;84.00;95836.41;2057259;28;20042;-61
2023/08/09 02:24:36;;;;;;;3.47;2.35;;;;;;;12.37;84.47;95831.03;2064662;28;20077;-61
2023/08/09 02:25:38;;;;;;;3.97;2.50;;;;;;;12.37;83.85;95836.25;2065539;28;20042;-61
2023/08/09 02:26:39;;;;;;;4.20;2.60;;;;;;;12.39;83.95;95838.78;2065509;28;20077;-61
2023/08/09 02:27:41;;;;;;;4.90;2.35;;;;;;;12.35;84.25;95836.34;2065552;28;20054;-61
2023/08/09 02:28:42;;;;;;;4.15;2.58;;;;;;;12.40;84.55;95832.63;2057074;28;20535;-61
2023/08/09 02:29:43;;;;;;;3.60;2.42;;;;;;;12.39;84.21;95837.00;2057191;28;20081;-61
2023/08/09 02:30:45;;;;;;;4.50;2.08;;;;;;;12.37;83.83;95828.44;2064999;28;20062;-61
2023/08/09 02:31:47;;;;;;;4.38;2.60;;;;;;;12.38;84.45;95830.13;2064363;28;20053;-61
2023/08/09 02:32:50;;;;;;;3.20;2.30;;;;;;;12.39;84.51;95826.59;2065652;28;20482;-61
2023/08/09 02:33:51;;;;;;;4.38;2.42;;;;;;;12.37;84.54;95818.00;2065647;28;20051;-61
2023/08/09 02:34:52;;;;;;;4.60;2.67;;;;;;;12.41;84.95;95821.31;2057007;28;20422;-61
2023/08/09 02:36:00;;;;;;;5.82;2.88;;;;;;;12.41;84.44;95821.31;2048944;28;20050;-61
2023/08/09 02:37:02;;;;;;;5.20;2.70;;;;;;;12.39;84.43;95812.72;2057378;28;20415;-61
2023/08/09 02:38:03;;;;;;;3.88;2.35;;;;;;;12.36;84.80;95819.78;2065772;28;20059;-61
2023/08/09 02:39:05;;;;;;;4.47;2.70;;;;;;;12.34;84.83;95813.81;2065011;28;20406;-61
2023/08/09 02:40:07;;;;;;;4.10;2.40;;;;;;;12.32;85.16;95812.22;2065110;28;20058;-61
2023/08/09 02:41:11;;;;;;;5.53;2.40;;;;;;;12.38;84.81;95818.88;2065479;28;20046;-61
2023/08/09 02:42:13;;;;;;;11.23;2.80;;;;;;;12.40;84.87;95817.00;2056596;28;20054;-61
2023/08/09 02:43:16;;;;;;;5.53;2.67;;;;;;;12.39;84.23;95821.38;2056857;28;20058;-61
2023/08/09 02:44:19;;;;;;;5.43;2.47;;;;;;;12.39;84.51;95815.34;2065408;28;20050;-61
2023/08/09 02:45:20;;;;;;;3.60;2.40;;;;;;;12.42;84.12;95822.97;2065472;28;20410;-61
2023/08/09 02:46:22;;;;;;;5.45;2.67;;;;;;;12.40;84.51;95822.22;2065435;28;20057;-61
2023/08/09 02:47:23;;;;;;;5.30;2.50;;;;;;;12.40;84.52;95817.84;2065110;28;20051;-61
2023/08/09 02:48:27;;;;;;;5.30;2.55;;;;;;;12.40;84.32;95822.22;2065242;28;20054;-61
2023/08/09 02:49:28;;;;;;;6.05;2.45;;;;;;;12.43;84.45;95822.03;2056897;28;20050;-61
2023/08/09 02:50:30;;;;;;;4.45;2.40;;;;;;;12.45;84.03;95825.41;2056378;28;20059;-61
2023/08/09 02:51:32;;;;;;;4.60;2.22;;;;;;;12.46;83.87;95834.91;2065773;28;20077;-61
2023/08/09 02:52:33;;;;;;;3.80;2.60;;;;;;;12.45;84.24;95835.81;2064131;28;20050;-61
2023/08/09 02:53:57;;;;;;;3.90;2.38;;;;;;;12.46;83.82;95832.31;2064459;28;20058;-61
2023/08/09 02:54:59;;;;;;;6.05;2.75;;;;;;;12.47;84.57;95845.22;2065135;28;20060;-61
2023/08/09 02:56:00;;;;;;;3.30;2.25;;;;;;;12.46;83.76;95838.34;2056715;28;20051;-61
2023/08/09 02:57:02;;;;;;;7.32;2.90;;;;;;;12.49;84.19;95848.59;2056961;28;20061;-60
2023/08/09 02:58:04;;;;;;;5.22;2.80;;;;;;;12.47;84.12;95855.63;2056782;28;20058;-61
2023/08/09 02:59:05;;;;;;;4.07;2.85;;;;;;;12.46;84.75;95847.94;2057010;28;20051;-61
2023/08/09 03:00:08;;;;;;;4.13;2.50;;;;;;;12.44;84.46;95839.34;2056715;28;20061;-61
2023/08/09 03:01:10;;;;;;;5.43;2.60;;;;;;;12.47;84.95;95847.81;2056869;28;20043;-61
2023/08/09 03:02:11;;;;;;;7.03;2.70;;;;;;;12.49;84.95;95838.16;2064426;28;20050;-61
2023/08/09 03:03:20;;;;;;;4.50;2.60;;;;;;;12.49;84.88;95845.97;2065907;28;20057;-60
2023/08/09 03:04:22;;;;;;;5.63;2.97;;;;;;;12.46;84.71;95843.56;2056536;28;20061;-61
2023/08/09 03:05:23;;;;;;;4.40;2.60;;;;;;;12.46;85.28;95835.75;2057183;28;20066;-61
2023/08/09 03:06:25;;;;;;;7.13;2.40;;;;;;;12.46;84.94;95843.56;2065419;28;20054;-61
2023/08/09 03:07:27;;;;;;;4.32;2.50;;;;;;;12.46;84.60;95843.56;2065172;28;20058;-61
2023/08/09 03:08:31;;;;;;;5.20;2.63;;;;;;;12.49;84.95;95848.59;2056198;28;20070;-60
2023/08/09 03:09:34;;;;;;;5.82;3.22;;;;;;;12.54;84.29;95851.75;2048621;28;20558;-61
2023/08/09 03:10:36;;;;;;;4.20;2.40;;;;;;;12.54;84.02;95837.91;2057201;28;20050;-61
2023/08/09 03:11:46;;;;;;;4.50;2.50;;;;;;;12.57;84.57;95840.34;2056949;28;20059;-61
2023/08/09 03:12:53;;;;;;;4.88;2.60;;;;;;;12.57;84.33;95848.16;2057304;28;20059;-61
2023/08/09 03:14:04;;;;;;;4.55;2.22;;;;;;;12.52;84.20;95837.97;2048484;29;20047;-61
2023/08/09 03:15:05;;;;;;;4.00;2.63;;;;;;;12.57;83.78;95842.94;2041509;28;20052;-61
2023/08/09 03:16:07;;;;;;;4.35;2.20;;;;;;;12.54;83.79;95846.56;2048527;28;20138;-61
2023/08/09 03:17:09;;;;;;;4.38;2.35;;;;;;;12.60;83.49;95853.19;2056485;28;20050;-61
2023/08/09 03:18:10;;;;;;;3.53;2.58;;;;;;;12.64;83.80;95852.06;2056412;28;20051;-61
2023/08/09 03:19:11;;;;;;;7.43;2.60;;;;;;;12.66;83.73;95862.41;2056980;28;20058;-62
2023/08/09 03:20:14;;;;;;;4.72;2.63;;;;;;;12.66;83.39;95852.81;2056523;28;20063;-61
2023/08/09 03:21:44;;;;;;;3.72;2.25;;;;;;;12.67;83.53;95858.84;2064767;28;20050;-61
2023/08/09 03:22:48;;;;;;;5.15;2.88;;;;;;;12.66;84.25;95858.03;2064503;28;20050;-61
2023/08/09 03:23:53;;;;;;;4.18;2.60;;;;;;;12.62;84.50;95850.50;2057259;28;20057;-61
2023/08/09 03:24:57;;;;;;;6.20;2.83;;;;;;;12.67;84.33;95856.25;2056949;28;20447;-61
2023/08/09 03:25:59;;;;;;;6.20;2.30;;;;;;;12.68;83.55;95857.94;2064083;28;20054;-61
2023/08/09 03:27:01;;;;;;;6.53;2.67;;;;;;;12.68;83.54;95857.94;2057057;28;20046;-61
2023/08/09 03:28:03;;;;;;;4.30;2.80;;;;;;;12.69;83.79;95854.41;2048861;28;20051;-61
2023/08/09 03:29:05;;;;;;;6.65;2.42;;;;;;;12.68;83.87;95858.78;2056964;28;20054;-61
2023/08/09 03:30:08;;;;;;;4.63;2.35;;;;;;;12.72;83.29;95855.09;2056203;28;20054;-61
2023/08/09 03:31:13;;;;;;;3.83;2.20;;;;;;;12.74;83.10;95852.38;2056544;28;20054;-61
2023/08/09 03:32:14;;;;;;;6.55;2.72;;;;;;;12.77;82.92;95862.63;2057218;28;20392;-61
2023/08/09 03:33:15;;;;;;;5.63;2.70;;;;;;;12.78;82.22;95862.53;2064084;28;20070;-61
2023/08/09 03:34:17;;;;;;;4.68;2.50;;;;;;;12.82;82.12;95859.75;2056897;28;20055;-61
2023/08/09 03:35:19;;;;;;;4.63;2.45;;;;;;;12.85;81.84;95860.41;2056454;28;20108;-61
2023/08/09 03:36:21;;;;;;;3.83;2.20;;;;;;;12.86;82.00;95862.09;2056280;28;20106;-61
2023/08/09 03:37:25;;;;;;;4.15;2.20;;;;;;;12.89;81.99;95858.47;2048921;28;20078;-61
2023/08/09 03:38:27;;;;;;;4.25;2.17;;;;;;;12.89;81.60;95859.31;2057358;28;20050;-61
2023/08/09 03:39:28;;;;;;;5.63;2.85;;;;;;;12.93;80.90;95852.13;2065308;28;20046;-61
2023/08/09 03:40:30;;;;;;;3.45;2.30;;;;;;;12.96;81.22;95855.41;2065491;28;20046;-61
2023/08/09 03:41:31;;;;;;;4.75;2.55;;;;;;;12.99;80.72;95859.59;2055951;28;20070;-61
2023/08/09 03:42:32;;;;;;;5.75;2.63;;;;;;;13.01;80.88;95865.56;2048732;28;20066;-61
2023/08/09 03:43:35;;;;;;;4.53;2.10;;;;;;;13.03;80.04;95869.75;2049969;29;20055;-61
2023/08/09 03:44:36;;;;;;;4.65;2.30;;;;;;;13.02;80.21;95862.88;2058137;28;20054;-61
2023/08/09 03:45:37;;;;;;;4.43;2.00;;;;;;;13.09;80.47;95867.72;2058208;28;20047;-62
2023/08/09 03:46:40;;;;;;;4.35;2.08;;;;;;;13.07;80.00;95870.44;2058184;28;20062;-61
2023/08/09 03:47:41;;;;;;;7.32;2.33;;;;;;;13.09;80.15;95868.53;2049813;28;20443;-61
2023/08/09 03:48:44;;;;;;;3.70;2.10;;;;;;;13.05;80.07;95866.22;2050409;28;20063;-61
2023/08/09 03:49:45;;;;;;;4.60;2.70;;;;;;;13.07;80.36;95870.44;2058276;28;20099;-61
2023/08/09 03:50:47;;;;;;;4.75;2.03;;;;;;;13.05;80.60;95863.63;2066669;28;20057;-61
2023/08/09 03:51:48;;;;;;;4.47;2.45;;;;;;;13.05;81.03;95881.88;2066989;28;20054;-61
2023/08/09 03:52:50;;;;;;;5.13;2.28;;;;;;;13.01;81.22;95863.78;2057972;28;20058;-61
2023/08/09 03:53:51;;;;;;;3.63;2.10;;;;;;;12.95;81.70;95864.16;2058209;28;20437;-61
2023/08/09 03:54:55;;;;;;;3.10;2.03;;;;;;;13.00;81.63;95874.31;2057296;28;20062;-61
2023/08/09 03:55:56;;;;;;;9.13;2.67;;;;;;;12.98;81.33;95876.16;2057743;28;20050;-61
2023/08/09 03:56:57;;;;;;;4.30;2.30;;;;;;;12.97;81.65;95869.28;2050312;28;20061;-61
2023/08/09 03:57:59;;;;;;;3.55;1.90;;;;;;;12.96;81.13;95881.50;2058296;28;20065;-61
2023/08/09 03:59:00;;;;;;;5.63;2.20;;;;;;;12.98;81.37;95887.44;2057985;28;20058;-61
2023/08/09 04:00:03;;;;;;;4.45;2.13;;;;;;;12.99;81.15;95878.69;2058300;28;20051;-61
2023/08/09 04:01:13;;;;;;;3.90;2.00;;;;;;;13.01;80.92;95889.84;2065844;28;20054;-61
2023/08/09 04:02:14;;;;;;;4.60;2.42;;;;;;;13.05;80.74;95882.72;2065916;28;20062;-61
2023/08/09 04:03:17;;;;;;;3.80;1.95;;;;;;;13.07;80.58;95885.19;2066043;28;20061;-61
2023/08/09 04:04:18;;;;;;;5.03;2.00;;;;;;;13.10;80.38;95880.66;2066203;28;20420;-61
2023/08/09 04:05:20;;;;;;;4.68;2.28;;;;;;;13.13;80.46;95887.47;2066827;28;20061;-61
2023/08/09 04:06:21;;;;;;;4.25;2.35;;;;;;;13.15;79.94;95886.44;2066338;28;20061;-61
2023/08/09 04:07:22;;;;;;;2.88;1.75;;;;;;;13.16;79.85;95888.13;2066287;28;20063;-61
2023/08/09 04:08:26;;;;;;;2.72;1.90;;;;;;;13.18;80.12;95883.66;2066837;28;20069;-61
2023/08/09 04:09:28;;;;;;;4.60;2.20;;;;;;;13.20;80.23;95887.03;2066601;28;20061;-61
2023/08/09 04:10:30;;;;;;;4.35;2.03;;;;;;;13.20;80.01;95891.38;2057517;28;20438;-61
2023/08/09 04:11:32;;;;;;;3.35;2.10;;;;;;;13.15;80.22;95882.97;2058356;28;20077;-60
2023/08/09 04:12:34;;;;;;;4.93;2.08;;;;;;;13.18;79.64;95888.03;2066358;28;20050;-61
2023/08/09 04:13:37;;;;;;;4.95;2.20;;;;;;;13.17;80.40;95894.16;2057385;28;20158;-61
2023/08/09 04:14:38;;;;;;;3.22;2.13;;;;;;;13.15;80.71;95893.41;2058038;28;20074;-61
2023/08/09 04:15:40;;;;;;;3.95;2.08;;;;;;;13.13;80.77;95896.13;2065593;28;20058;-61
2023/08/09 04:16:41;;;;;;;3.08;1.83;;;;;;;13.13;80.76;95890.09;2066375;28;20055;-61
2023/08/09 04:17:43;;;;;;;3.22;2.13;;;;;;;13.10;80.84;95888.50;2066878;28;20054;-61
2023/08/09 04:18:44;;;;;;;3.47;1.80;;;;;;;13.12;80.77;95888.38;2066802;28;20054;-61
2023/08/09 04:19:48;;;;;;;6.28;1.63;;;;;;;13.10;80.93;95885.06;2066529;28;20058;-61
2023/08/09 04:20:50;;;;;;;3.55;2.20;;;;;;;13.08;80.80;95898.16;2058152;28;20047;-61
2023/08/09 04:21:51;;;;;;;4.38;1.88;;;;;;;13.07;81.00;95896.50;2058229;28;20136;-61
2023/08/09 04:22:53;;;;;;;3.83;1.65;;;;;;;13.08;81.08;95897.34;2065790;28;20058;-61
2023/08/09 04:23:55;;;;;;;3.00;1.98;;;;;;;13.08;80.50;95892.13;2066239;28;20054;-61
2023/08/09 04:24:56;;;;;;;3.80;1.60;;;;;;;13.08;80.36;95897.34;2066557;28;20050;-61
2023/08/09 04:25:57;;;;;;;2.70;1.60;;;;;;;13.03;80.46;95889.78;2066362;28;20047;-61
2023/08/09 04:26:59;;;;;;;6.82;2.28;;;;;;;13.09;81.19;95884.19;2065749;28;20057;-61
2023/08/09 04:28:01;;;;;;;3.40;2.00;;;;;;;13.09;81.11;95893.78;2066503;28;20050;-61
2023/08/09 04:29:03;;;;;;;4.53;1.85;;;;;;;13.10;80.75;95890.28;2066221;28;20050;-61
2023/08/09 04:30:09;;;;;;;4.47;1.85;;;;;;;13.08;80.79;95879.09;2065552;28;20061;-61
2023/08/09 04:31:10;;;;;;;6.15;2.17;;;;;;;13.11;81.45;95890.16;2065675;28;20053;-61
2023/08/09 04:32:12;;;;;;;4.03;1.83;;;;;;;13.06;81.23;95881.75;2065997;28;20050;-61
2023/08/09 04:33:13;;;;;;;3.05;1.90;;;;;;;13.11;81.42;95882.34;2066551;28;20375;-61
2023/08/09 04:34:14;;;;;;;4.13;1.95;;;;;;;13.14;81.12;95887.38;2066134;28;20058;-61
2023/08/09 04:35:15;;;;;;;3.60;1.83;;;;;;;13.14;81.15;95884.75;2066534;28;20054;-61
2023/08/09 04:36:17;;;;;;;4.72;1.85;;;;;;;13.14;80.89;95882.16;2066896;28;20062;-61
2023/08/09 04:37:18;;;;;;;3.33;1.80;;;;;;;13.18;80.31;95882.81;2066206;28;20417;-61
2023/08/09 04:38:20;;;;;;;3.40;2.33;;;;;;;13.18;80.01;95886.28;2066616;28;20093;-61
2023/08/09 04:39:23;;;;;;;3.80;1.58;;;;;;;13.19;79.58;95884.50;2065581;28;20046;-61
2023/08/09 04:40:25;;;;;;;3.85;1.83;;;;;;;13.17;79.97;95887.19;2065346;28;20062;-61
2023/08/09 04:41:26;;;;;;;3.15;1.88;;;;;;;13.20;80.05;95881.81;2065560;28;20046;-61
2023/08/09 04:42:27;;;;;;;3.88;1.55;;;;;;;13.15;80.02;95882.97;2066271;28;20066;-61
2023/08/09 04:43:28;;;;;;;3.83;2.08;;;;;;;13.19;80.09;95892.31;2066611;28;20101;-61
2023/08/09 04:44:30;;;;;;;3.22;1.90;;;;;;;13.19;79.73;95894.94;2065536;28;20410;-61
2023/08/09 04:45:33;;;;;;;4.70;1.77;;;;;;;13.18;80.30;95899.31;2065837;28;20059;-61
2023/08/09 04:46:35;;;;;;;3.70;1.70;;;;;;;13.13;80.61;95898.72;2066568;28;20054;-61
2023/08/09 04:47:37;;;;;;;4.95;2.10;;;;;;;13.13;81.18;95905.72;2066599;28;20426;-62
2023/08/09 04:48:38;;;;;;;3.83;2.20;;;;;;;13.10;81.41;95906.75;2066640;28;20050;-61
2023/08/09 04:49:40;;;;;;;3.92;2.10;;;;;;;13.05;81.72;95900.13;2065703;28;20479;-61
2023/08/09 04:50:42;;;;;;;2.92;1.67;;;;;;;13.05;82.17;95913.16;2066445;28;20057;-61
2023/08/09 04:51:43;;;;;;;3.90;2.38;;;;;;;13.01;82.22;95907.25;2065860;28;20054;-61
2023/08/09 04:52:44;;;;;;;5.05;2.30;;;;;;;12.96;82.19;95911.91;2066499;28;20050;-61
2023/08/09 04:53:46;;;;;;;5.78;2.30;;;;;;;12.96;82.56;95910.16;2066264;28;20051;-61
2023/08/09 04:54:47;;;;;;;3.88;2.15;;;;;;;12.94;82.89;95911.16;2066259;28;20140;-61